createdAt,value
2018-12-30T00:01:06.665Z,2.93
2018-12-30T00:03:55.316Z,3.90
2018-12-30T00:06:38.145Z,2.90
2018-12-30T00:09:20.984Z,3.17
2018-12-30T00:12:02.180Z,2.53
2018-12-30T00:14:31.681Z,2.60
2018-12-30T00:17:20.275Z,4.13
2018-12-30T00:20:00.915Z,3.80
2018-12-30T00:22:30.460Z,3.10
2018-12-30T00:25:19.036Z,3.90
2018-12-30T00:28:00.199Z,2.97
2018-12-30T00:30:29.697Z,3.33
2018-12-30T00:33:18.282Z,2.93
2018-12-30T00:36:08.484Z,2.67
2018-12-30T00:38:50.062Z,2.50
2018-12-30T00:44:13.241Z,2.77
2018-12-30T00:46:54.393Z,2.20
2018-12-30T00:49:35.244Z,3.10
2018-12-30T00:52:16.517Z,2.00
2018-12-30T00:54:56.065Z,2.47
2018-12-30T00:57:44.900Z,2.30
2018-12-30T01:00:25.991Z,2.03
2018-12-30T01:03:06.724Z,2.20
2018-12-30T01:05:48.056Z,3.23
2018-12-30T01:08:29.658Z,2.40
2018-12-30T01:11:10.942Z,2.10
2018-12-30T01:13:52.156Z,2.77
2018-12-30T01:16:33.707Z,2.27
2018-12-30T01:19:15.227Z,2.20
2018-12-30T01:21:56.615Z,2.57
2018-12-30T01:24:26.106Z,2.87
2018-12-30T01:27:14.672Z,2.63
2018-12-30T01:30:03.242Z,2.67
2018-12-30T01:32:43.969Z,2.67
2018-12-30T01:35:25.291Z,2.20
2018-12-30T01:38:06.360Z,3.50
2018-12-30T01:44:07.185Z,2.73
2018-12-30T01:46:36.689Z,3.27
2018-12-30T01:49:25.280Z,2.83
2018-12-30T01:52:13.866Z,2.50
2018-12-30T01:54:55.328Z,3.90
2018-12-30T01:57:36.835Z,2.73
2018-12-30T02:00:06.610Z,3.50
2018-12-30T02:02:55.131Z,2.97
2018-12-30T02:05:35.934Z,2.23
2018-12-30T02:08:17.457Z,3.03
2018-12-30T02:10:58.981Z,2.70
2018-12-30T02:13:40.692Z,3.10
2018-12-30T02:19:30.230Z,2.80
2018-12-30T02:22:11.545Z,3.07
2018-12-30T02:24:41.071Z,3.00
2018-12-30T02:27:29.624Z,2.87
2018-12-30T02:30:11.221Z,3.13
2018-12-30T02:32:52.760Z,2.40
2018-12-30T02:35:33.632Z,2.40
2018-12-30T02:38:15.232Z,2.90
2018-12-30T02:40:56.602Z,2.97
2018-12-30T02:50:01.988Z,4.23
2018-12-30T02:52:42.960Z,2.83
2018-12-30T02:55:24.321Z,2.60
2018-12-30T02:58:05.958Z,3.03
2018-12-30T03:03:52.345Z,2.87
2018-12-30T03:06:33.721Z,4.33
2018-12-30T03:12:19.545Z,2.50
2018-12-30T03:15:00.265Z,3.60
2018-12-30T03:17:29.847Z,3.30
2018-12-30T03:20:18.878Z,2.80
2018-12-30T03:22:59.777Z,2.80
2018-12-30T03:25:41.022Z,2.07
2018-12-30T03:28:22.839Z,2.13
2018-12-30T03:30:52.359Z,3.63
2018-12-30T03:33:40.954Z,2.23
2018-12-30T03:36:10.509Z,2.60
2018-12-30T03:38:59.029Z,2.90
2018-12-30T03:41:40.222Z,2.33
2018-12-30T03:44:21.749Z,1.80
2018-12-30T03:47:03.175Z,2.00
2018-12-30T03:49:44.778Z,2.13
2018-12-30T03:52:24.358Z,1.83
2018-12-30T03:55:05.714Z,2.40
2018-12-30T03:57:47.239Z,2.17
2018-12-30T04:00:27.941Z,2.37
2018-12-30T04:03:09.305Z,2.57
2018-12-30T04:05:50.733Z,2.30
2018-12-30T04:08:31.588Z,2.30
2018-12-30T04:11:12.996Z,2.27
2018-12-30T04:13:53.662Z,1.73
2018-12-30T04:16:34.938Z,1.73
2018-12-30T04:19:04.461Z,2.77
2018-12-30T04:21:45.385Z,2.00
2018-12-30T04:24:26.565Z,3.00
2018-12-30T04:27:07.331Z,1.33
2018-12-30T04:29:46.916Z,1.27
2018-12-30T04:32:27.745Z,1.03
2018-12-30T04:35:08.548Z,1.40
2018-12-30T04:37:49.313Z,1.30
2018-12-30T04:40:30.864Z,1.53
2018-12-30T04:43:11.731Z,1.87
2018-12-30T04:45:52.946Z,1.20
2018-12-30T04:48:34.447Z,1.83
2018-12-30T04:51:03.952Z,1.90
2018-12-30T04:53:52.475Z,1.73
2018-12-30T04:56:41.048Z,1.60
2018-12-30T04:59:22.497Z,1.40
2018-12-30T05:02:04.157Z,1.47
2018-12-30T05:04:45.035Z,1.40
2018-12-30T05:07:26.074Z,1.50
2018-12-30T05:10:07.645Z,1.30
2018-12-30T05:12:49.218Z,1.40
2018-12-30T05:15:29.945Z,1.33
2018-12-30T05:18:11.210Z,1.67
2018-12-30T05:20:52.632Z,1.70
2018-12-30T05:23:33.557Z,1.27
2018-12-30T05:26:03.229Z,2.37
2018-12-30T05:28:51.738Z,2.17
2018-12-30T05:31:33.171Z,1.60
2018-12-30T05:34:14.566Z,2.23
2018-12-30T05:36:55.773Z,2.27
2018-12-30T05:39:37.257Z,2.70
2018-12-30T05:42:18.598Z,2.70
2018-12-30T05:44:59.950Z,2.20
2018-12-30T05:47:41.002Z,3.10
2018-12-30T05:50:22.196Z,1.57
2018-12-30T05:53:03.835Z,2.30
2018-12-30T05:55:44.931Z,1.40
2018-12-30T05:58:26.137Z,2.03
2018-12-30T06:00:55.624Z,2.13
2018-12-30T06:03:44.242Z,2.23
2018-12-30T06:06:32.834Z,2.20
2018-12-30T06:09:14.294Z,2.03
2018-12-30T06:11:43.759Z,1.80
2018-12-30T06:14:32.419Z,1.90
2018-12-30T06:17:20.941Z,2.67
2018-12-30T06:20:02.623Z,1.30
2018-12-30T06:22:49.545Z,1.93
2018-12-30T06:25:26.834Z,1.70
2018-12-30T06:28:08.360Z,1.97
2018-12-30T06:30:49.931Z,2.20
2018-12-30T06:33:31.581Z,2.23
2018-12-30T06:36:01.117Z,2.00
2018-12-30T06:38:49.645Z,2.00
2018-12-30T06:41:31.247Z,1.93
2018-12-30T06:44:12.022Z,1.53
2018-12-30T06:46:53.426Z,2.83
2018-12-30T06:49:35.019Z,2.03
2018-12-30T06:52:14.638Z,2.53
2018-12-30T06:55:03.139Z,2.03
2018-12-30T06:57:44.240Z,2.37
2018-12-30T07:00:25.492Z,1.67
2018-12-30T07:03:06.445Z,1.90
2018-12-30T07:05:48.012Z,1.87
2018-12-30T07:08:31.897Z,2.20
2018-12-30T07:11:13.001Z,1.67
2018-12-30T07:13:53.686Z,2.17
2018-12-30T07:19:52.870Z,1.90
2018-12-30T07:22:33.755Z,1.77
2018-12-30T07:25:15.362Z,1.60
2018-12-30T07:27:44.842Z,1.43
2018-12-30T07:30:33.378Z,1.20
2018-12-30T07:33:23.116Z,1.90
2018-12-30T07:36:04.246Z,1.77
2018-12-30T07:38:45.021Z,2.20
2018-12-30T07:41:26.198Z,1.67
2018-12-30T07:44:07.790Z,1.70
2018-12-30T07:46:49.080Z,1.20
2018-12-30T07:49:30.680Z,1.10
2018-12-30T07:52:11.477Z,1.67
2018-12-30T07:54:52.922Z,1.00
2018-12-30T07:57:34.122Z,0.87
2018-12-30T08:00:14.920Z,1.03
2018-12-30T08:02:56.439Z,1.17
2018-12-30T08:05:26.519Z,1.70
2018-12-30T08:08:16.191Z,1.53
2018-12-30T08:10:57.575Z,1.10
2018-12-30T08:13:38.309Z,1.00
2018-12-30T08:16:19.483Z,1.07
2018-12-30T08:19:01.176Z,0.83
2018-12-30T08:21:42.210Z,1.57
2018-12-30T08:24:23.672Z,1.30
2018-12-30T08:27:05.255Z,1.40
2018-12-30T08:29:46.691Z,1.00
2018-12-30T08:32:27.404Z,1.17
2018-12-30T08:35:08.967Z,1.53
2018-12-30T08:37:49.762Z,1.70
2018-12-30T08:40:31.346Z,1.07
2018-12-30T08:45:54.901Z,1.80
2018-12-30T08:48:36.481Z,2.13
2018-12-30T08:51:17.955Z,1.83
2018-12-30T08:57:17.566Z,1.97
2018-12-30T09:03:18.157Z,1.67
2018-12-30T09:06:18.384Z,2.00
2018-12-30T09:08:59.825Z,1.30
2018-12-30T09:11:41.222Z,1.33
2018-12-30T09:14:22.806Z,1.30
2018-12-30T09:17:04.223Z,1.63
2018-12-30T09:19:45.241Z,1.87
2018-12-30T09:22:26.471Z,2.23
2018-12-30T09:25:07.511Z,1.50
2018-12-30T09:27:49.134Z,1.10
2018-12-30T09:30:30.760Z,2.50
2018-12-30T09:33:12.014Z,1.57
2018-12-30T09:35:53.552Z,1.33
2018-12-30T09:38:33.792Z,2.00
2018-12-30T09:41:15.405Z,2.77
2018-12-30T09:46:43.298Z,1.80
2018-12-30T09:49:24.024Z,2.40
2018-12-30T09:52:05.451Z,1.50
2018-12-30T09:58:05.774Z,1.93
2018-12-30T10:00:35.281Z,3.20
2018-12-30T10:03:23.883Z,2.30
2018-12-30T10:06:12.437Z,1.97
2018-12-30T10:08:53.286Z,1.97
2018-12-30T10:11:34.271Z,1.63
2018-12-30T10:14:15.030Z,1.70
2018-12-30T10:16:56.620Z,1.40
2018-12-30T10:19:37.419Z,1.80
2018-12-30T10:22:18.754Z,2.10
2018-12-30T10:24:59.454Z,2.00
2018-12-30T10:27:40.340Z,2.07
2018-12-30T10:30:10.445Z,1.73
2018-12-30T10:32:58.992Z,2.27
2018-12-30T10:35:39.889Z,2.00
2018-12-30T10:38:20.937Z,1.80
2018-12-30T10:41:01.742Z,2.03
2018-12-30T10:43:43.243Z,1.97
2018-12-30T10:46:24.315Z,2.00
2018-12-30T10:49:05.361Z,2.20
2018-12-30T10:51:46.481Z,2.23
2018-12-30T10:54:27.232Z,2.23
2018-12-30T10:57:08.624Z,1.80
2018-12-30T10:59:49.321Z,2.47
2018-12-30T11:02:30.093Z,2.00
2018-12-30T11:05:09.742Z,1.90
2018-12-30T11:07:51.348Z,1.43
2018-12-30T11:10:32.769Z,1.90
2018-12-30T11:13:13.588Z,2.23
2018-12-30T11:15:54.259Z,1.70
2018-12-30T11:18:35.238Z,2.33
2018-12-30T11:24:29.081Z,1.87
2018-12-30T11:30:30.025Z,2.00
2018-12-30T11:33:10.700Z,2.27
2018-12-30T11:35:52.168Z,2.00
2018-12-30T11:38:33.750Z,2.30
2018-12-30T11:41:15.223Z,1.63
2018-12-30T11:43:56.096Z,1.97
2018-12-30T11:46:37.539Z,2.10
2018-12-30T11:49:18.259Z,2.00
2018-12-30T11:51:59.136Z,1.87
2018-12-30T11:57:52.983Z,1.43
2018-12-30T12:00:34.086Z,1.40
2018-12-30T12:03:14.783Z,1.67
2018-12-30T12:05:55.951Z,1.97
2018-12-30T12:08:36.705Z,1.70
2018-12-30T12:11:17.592Z,2.37
2018-12-30T12:13:58.366Z,1.93
2018-12-30T12:16:39.819Z,1.57
2018-12-30T12:19:20.803Z,1.37
2018-12-30T12:22:01.802Z,1.93
2018-12-30T12:24:43.225Z,2.27
2018-12-30T12:27:23.921Z,1.90
2018-12-30T12:30:05.135Z,1.77
2018-12-30T12:32:46.485Z,1.73
2018-12-30T12:35:27.881Z,1.40
2018-12-30T12:38:09.428Z,2.03
2018-12-30T12:40:50.263Z,2.20
2018-12-30T12:43:31.268Z,1.23
2018-12-30T12:49:21.102Z,1.40
2018-12-30T12:52:02.275Z,1.60
2018-12-30T12:57:48.945Z,1.50
2018-12-30T13:00:29.800Z,1.50
2018-12-30T13:03:10.686Z,1.73
2018-12-30T13:05:51.675Z,1.60
2018-12-30T13:08:32.445Z,2.17
2018-12-30T13:11:13.194Z,1.80
2018-12-30T13:13:42.765Z,1.67
2018-12-30T13:16:24.102Z,1.50
2018-12-30T13:22:06.402Z,2.53
2018-12-30T13:24:55.129Z,1.10
2018-12-30T13:27:37.490Z,1.87
2018-12-30T13:30:15.744Z,1.93
2018-12-30T13:32:56.923Z,2.20
2018-12-30T13:35:43.333Z,1.43
2018-12-30T13:38:28.127Z,1.50
2018-12-30T13:41:04.317Z,1.37
2018-12-30T13:43:45.525Z,1.60
2018-12-30T13:46:27.050Z,2.63
2018-12-30T13:49:08.826Z,2.07
2018-12-30T13:51:49.887Z,2.07
2018-12-30T13:54:31.561Z,2.10
2018-12-30T13:57:12.785Z,1.10
2018-12-30T13:59:42.878Z,1.17
2018-12-30T14:02:31.703Z,1.27
2018-12-30T14:05:01.771Z,1.77
2018-12-30T14:07:31.699Z,2.37
2018-12-30T14:10:20.534Z,2.10
2018-12-30T14:12:50.517Z,1.37
2018-12-30T14:15:20.299Z,1.27
2018-12-30T14:18:09.082Z,1.47
2018-12-30T14:20:58.129Z,1.83
2018-12-30T14:23:46.975Z,2.60
2018-12-30T14:26:28.347Z,2.57
2018-12-30T14:29:09.805Z,1.40
2018-12-30T14:31:51.251Z,1.83
2018-12-30T14:34:32.569Z,1.47
2018-12-30T14:37:13.407Z,1.60
2018-12-30T14:39:54.424Z,1.80
2018-12-30T14:42:35.917Z,1.87
2018-12-30T14:45:17.492Z,2.10
2018-12-30T14:47:59.123Z,1.80
2018-12-30T14:50:40.275Z,1.53
2018-12-30T14:53:21.798Z,2.30
2018-12-30T14:55:51.753Z,2.47
2018-12-30T14:58:40.866Z,2.20
2018-12-30T15:01:21.958Z,2.20
2018-12-30T15:04:02.708Z,2.13
2018-12-30T15:06:43.684Z,1.47
2018-12-30T15:09:24.843Z,2.20
2018-12-30T15:12:06.279Z,2.30
2018-12-30T15:14:47.936Z,3.00
2018-12-30T15:17:36.602Z,2.60
2018-12-30T15:20:25.417Z,2.67
2018-12-30T15:23:07.344Z,2.87
2018-12-30T15:25:37.647Z,2.70
2018-12-30T15:28:26.582Z,1.63
2018-12-30T15:31:15.473Z,1.87
2018-12-30T15:33:56.343Z,2.83
2018-12-30T15:36:37.651Z,3.43
2018-12-30T15:39:19.291Z,2.03
2018-12-30T15:42:00.637Z,2.53
2018-12-30T15:44:42.092Z,2.57
2018-12-30T15:47:23.218Z,2.20
2018-12-30T15:50:04.658Z,2.30
2018-12-30T15:52:34.504Z,2.90
2018-12-30T15:55:23.354Z,2.80
2018-12-30T15:58:12.110Z,3.87
2018-12-30T16:00:53.037Z,2.07
2018-12-30T16:03:34.241Z,2.53
2018-12-30T16:06:04.189Z,2.20
2018-12-30T16:08:34.312Z,2.33
2018-12-30T16:11:04.120Z,1.80
2018-12-30T16:13:52.916Z,2.17
2018-12-30T16:16:34.765Z,2.20
2018-12-30T16:19:16.257Z,2.40
2018-12-30T16:21:45.961Z,2.40
2018-12-30T16:24:34.900Z,1.97
2018-12-30T16:27:23.526Z,1.90
2018-12-30T16:30:05.922Z,2.53
2018-12-30T16:32:47.158Z,2.17
2018-12-30T16:35:28.769Z,2.47
2018-12-30T16:38:10.305Z,2.03
2018-12-30T16:40:51.649Z,3.27
2018-12-30T16:43:33.301Z,3.37
2018-12-30T16:46:15.041Z,3.97
2018-12-30T16:48:44.964Z,3.20
2018-12-30T16:51:33.981Z,3.53
2018-12-30T16:54:03.762Z,2.60
2018-12-30T16:56:52.387Z,2.97
2018-12-30T16:59:34.140Z,3.37
2018-12-30T17:02:15.313Z,3.60
2018-12-30T17:04:57.072Z,4.23
2018-12-30T17:07:38.247Z,3.47
2018-12-30T17:10:19.693Z,3.80
2018-12-30T17:12:49.315Z,3.80
2018-12-30T17:15:30.412Z,3.13
2018-12-30T17:18:00.482Z,3.53
2018-12-30T17:20:49.404Z,3.47
2018-12-30T17:23:30.360Z,3.13
2018-12-30T17:26:11.487Z,4.20
2018-12-30T17:28:53.026Z,4.07
2018-12-30T17:31:34.493Z,3.40
2018-12-30T17:34:15.955Z,3.97
2018-12-30T17:36:57.478Z,3.43
2018-12-30T17:39:38.425Z,4.10
2018-12-30T17:42:19.708Z,3.73
2018-12-30T17:45:01.238Z,3.83
2018-12-30T17:47:42.447Z,4.07
2018-12-30T17:50:23.889Z,4.27
2018-12-30T17:52:53.596Z,4.90
2018-12-30T17:55:42.423Z,4.57
2018-12-30T17:58:12.122Z,4.83
2018-12-30T18:00:42.133Z,4.50
2018-12-30T18:03:30.873Z,4.07
2018-12-30T18:06:19.593Z,4.97
2018-12-30T18:08:49.477Z,5.43
2018-12-30T18:11:38.171Z,5.00
2018-12-30T18:14:19.551Z,4.97
2018-12-30T18:17:00.491Z,6.90
2018-12-30T18:19:41.396Z,7.30
2018-12-30T18:22:22.309Z,7.10
2018-12-30T18:25:03.872Z,8.03
2018-12-30T18:27:45.583Z,6.93
2018-12-30T18:30:15.280Z,7.07
2018-12-30T18:32:44.898Z,7.47
2018-12-30T18:35:33.743Z,7.30
2018-12-30T18:38:22.610Z,6.70
2018-12-30T18:41:04.302Z,7.87
2018-12-30T18:43:46.264Z,6.90
2018-12-30T18:46:27.773Z,7.50
2018-12-30T18:49:09.347Z,6.83
2018-12-30T18:51:51.048Z,7.73
2018-12-30T18:54:32.627Z,7.57
2018-12-30T18:57:13.536Z,6.83
2018-12-30T18:59:43.145Z,7.67
2018-12-30T19:02:32.178Z,7.97
2018-12-30T19:05:21.131Z,8.57
2018-12-30T19:07:50.867Z,9.73
2018-12-30T19:10:39.754Z,7.33
2018-12-30T19:13:23.017Z,7.07
2018-12-30T19:15:52.841Z,6.97
2018-12-30T19:18:41.575Z,7.67
2018-12-30T19:21:30.815Z,7.10
2018-12-30T19:24:13.196Z,7.63
2018-12-30T19:26:54.364Z,7.40
2018-12-30T19:29:24.491Z,6.60
2018-12-30T19:32:13.598Z,7.10
2018-12-30T19:34:55.322Z,7.37
2018-12-30T19:37:36.957Z,7.57
2018-12-30T19:40:19.342Z,7.37
2018-12-30T19:42:49.478Z,8.97
2018-12-30T19:45:19.723Z,7.87
2018-12-30T19:48:08.488Z,8.57
2018-12-30T19:50:57.210Z,7.83
2018-12-30T19:53:45.960Z,8.47
2018-12-30T19:56:27.055Z,8.43
2018-12-30T19:59:08.832Z,9.13
2018-12-30T20:01:49.661Z,8.83
2018-12-30T20:04:19.481Z,9.37
2018-12-30T20:07:08.390Z,9.47
2018-12-30T20:09:50.147Z,8.67
2018-12-30T20:12:31.977Z,7.77
2018-12-30T20:15:13.459Z,7.97
2018-12-30T20:17:54.901Z,8.07
2018-12-30T20:20:36.483Z,8.37
2018-12-30T20:23:17.962Z,9.67
2018-12-30T20:25:59.005Z,9.00
2018-12-30T20:28:40.300Z,9.20
2018-12-30T20:31:21.500Z,11.43
2018-12-30T20:34:03.341Z,13.17
2018-12-30T20:36:44.664Z,13.00
2018-12-30T20:39:14.418Z,12.80
2018-12-30T20:42:03.240Z,12.17
2018-12-30T20:44:33.407Z,11.90
2018-12-30T20:47:22.487Z,10.40
2018-12-30T20:50:03.725Z,10.73
2018-12-30T20:52:45.417Z,11.53
2018-12-30T20:55:27.065Z,11.30
2018-12-30T20:58:08.600Z,11.13
2018-12-30T21:00:49.615Z,11.77
2018-12-30T21:03:30.513Z,10.67
2018-12-30T21:06:11.903Z,11.90
2018-12-30T21:08:53.522Z,12.80
2018-12-30T21:11:35.174Z,12.47
2018-12-30T21:14:16.334Z,11.30
2018-12-30T21:16:57.679Z,12.13
2018-12-30T21:19:38.996Z,10.63
2018-12-30T21:22:20.118Z,11.87
2018-12-30T21:25:01.084Z,10.60
2018-12-30T21:27:42.139Z,10.03
2018-12-30T21:30:23.455Z,9.67
2018-12-30T21:33:04.884Z,11.10
2018-12-30T21:35:46.934Z,10.83
2018-12-30T21:38:16.928Z,10.17
2018-12-30T21:41:05.623Z,9.67
2018-12-30T21:43:35.353Z,9.37
2018-12-30T21:46:05.314Z,9.43
2018-12-30T21:48:35.390Z,9.70
2018-12-30T21:51:24.225Z,8.43
2018-12-30T21:54:13.002Z,10.27
2018-12-30T22:00:06.781Z,9.97
2018-12-30T22:02:47.968Z,10.60
2018-12-30T22:05:29.353Z,10.63
2018-12-30T22:07:59.071Z,10.30
2018-12-30T22:10:47.906Z,10.77
2018-12-30T22:13:36.853Z,10.93
2018-12-30T22:16:17.781Z,10.47
2018-12-30T22:18:59.342Z,11.30
2018-12-30T22:21:40.276Z,9.90
2018-12-30T22:24:22.095Z,9.67
2018-12-30T22:27:03.351Z,10.73
2018-12-30T22:29:44.989Z,10.43
2018-12-30T22:32:26.246Z,10.30
2018-12-30T22:35:07.778Z,10.40
2018-12-30T22:37:48.705Z,10.43
2018-12-30T22:40:29.828Z,11.40
2018-12-30T22:43:11.502Z,10.77
2018-12-30T22:45:52.919Z,10.87
2018-12-30T22:48:34.622Z,10.10
2018-12-30T22:51:15.949Z,10.40
2018-12-30T22:53:57.730Z,10.60
2018-12-30T22:56:39.290Z,11.07
2018-12-30T22:59:20.610Z,10.40
2018-12-30T23:02:01.779Z,10.30
2018-12-30T23:04:31.477Z,10.13
2018-12-30T23:07:20.165Z,10.37
2018-12-30T23:10:01.255Z,10.03
2018-12-30T23:12:42.801Z,11.17
2018-12-30T23:15:24.283Z,9.00
2018-12-30T23:18:05.684Z,10.30
2018-12-30T23:20:47.564Z,9.97
2018-12-30T23:23:28.883Z,9.03
2018-12-30T23:26:10.184Z,8.43
2018-12-30T23:28:51.048Z,9.23
2018-12-30T23:31:32.340Z,7.10
2018-12-30T23:34:14.514Z,7.60
2018-12-30T23:36:44.215Z,7.30
2018-12-30T23:39:32.899Z,7.47
2018-12-30T23:42:14.371Z,7.30
2018-12-30T23:44:55.968Z,7.57
2018-12-30T23:47:37.590Z,6.80
2018-12-30T23:50:19.179Z,6.67
2018-12-30T23:53:01.007Z,6.77
2018-12-30T23:55:42.056Z,7.40
2018-12-30T23:58:23.313Z,6.27
